createdAt,value
2019-03-05T00:01:18.524Z,99701.78
2019-03-05T00:03:48.168Z,99701.78
2019-03-05T00:06:17.475Z,99692.81
2019-03-05T00:08:47.233Z,99696.87
2019-03-05T00:11:16.518Z,99646.94
2019-03-05T00:13:46.021Z,99695.34
2019-03-05T00:16:15.388Z,99693.66
2019-03-05T00:18:44.818Z,99689.91
2019-03-05T00:21:14.425Z,99704.12
2019-03-05T00:23:46.478Z,99690.30
2019-03-05T00:26:18.318Z,99680.30
2019-03-05T00:29:05.649Z,99680.30
2019-03-05T00:31:38.000Z,99690.37
2019-03-05T00:34:29.540Z,99690.37
2019-03-05T00:37:07.436Z,99690.07
2019-03-05T00:39:45.387Z,99698.14
2019-03-05T00:42:43.358Z,99694.97
2019-03-05T00:45:32.447Z,99707.69
2019-03-05T00:48:22.665Z,99712.14
2019-03-05T00:51:24.950Z,99709.50
2019-03-05T00:57:13.419Z,99735.75
2019-03-05T01:00:00.651Z,99756.85
2019-03-05T01:02:48.108Z,99788.95
2019-03-05T01:05:41.781Z,99795.75
2019-03-05T01:08:11.164Z,99795.75
2019-03-05T01:10:40.497Z,99820.84
2019-03-05T01:13:10.070Z,99813.28
2019-03-05T01:15:39.405Z,99796.97
2019-03-05T01:18:09.166Z,99795.06
2019-03-05T01:20:38.574Z,99803.99
2019-03-05T01:23:08.332Z,99801.05
2019-03-05T01:25:37.605Z,99797.69
2019-03-05T01:28:06.982Z,99782.05
2019-03-05T01:30:57.010Z,99778.47
2019-03-05T01:33:28.102Z,99770.95
2019-03-05T01:36:04.939Z,99780.78
2019-03-05T01:38:35.874Z,99766.05
2019-03-05T01:41:07.193Z,99763.80
2019-03-05T01:43:36.789Z,99774.97
2019-03-05T01:46:06.524Z,99771.30
2019-03-05T01:48:35.801Z,99773.01
2019-03-05T01:51:05.177Z,99772.61
2019-03-05T01:53:34.464Z,99777.51
2019-03-05T01:56:03.904Z,99771.16
2019-03-05T01:58:33.174Z,99777.66
2019-03-05T02:01:02.813Z,99776.38
2019-03-05T02:03:32.391Z,99774.66
2019-03-05T02:06:01.828Z,99778.83
2019-03-05T02:08:31.393Z,99775.98
2019-03-05T02:11:01.223Z,99774.72
2019-03-05T02:13:30.513Z,99780.67
2019-03-05T02:16:00.420Z,99781.39
2019-03-05T02:18:29.713Z,99782.81
2019-03-05T02:20:58.991Z,99780.73
2019-03-05T02:23:34.566Z,99780.50
2019-03-05T02:26:12.836Z,99782.99
2019-03-05T02:28:59.882Z,99773.22
2019-03-05T02:31:48.762Z,99773.33
2019-03-05T02:34:27.009Z,99779.44
2019-03-05T02:37:15.668Z,99772.14
2019-03-05T02:40:02.965Z,99776.09
2019-03-05T02:42:40.403Z,99775.48
2019-03-05T02:45:21.724Z,99782.19
2019-03-05T02:48:26.142Z,99779.42
2019-03-05T02:51:04.208Z,99785.52
2019-03-05T02:54:06.787Z,99785.88
2019-03-05T02:56:41.952Z,99786.95
2019-03-05T02:59:10.102Z,99791.21
2019-03-05T03:01:43.446Z,99789.90
2019-03-05T03:04:20.177Z,99791.93
2019-03-05T03:06:50.196Z,99790.47
2019-03-05T03:09:31.383Z,99789.90
2019-03-05T03:12:01.003Z,99792.86
2019-03-05T03:14:30.312Z,99787.48
2019-03-05T03:16:59.604Z,99782.36
2019-03-05T03:19:29.190Z,99777.00
2019-03-05T03:21:58.499Z,99771.08
2019-03-05T03:24:27.783Z,99771.30
2019-03-05T03:26:57.188Z,99771.17
2019-03-05T03:29:26.451Z,99766.13
2019-03-05T03:31:55.755Z,99772.90
2019-03-05T03:34:25.070Z,99778.18
2019-03-05T03:36:54.511Z,99779.17
2019-03-05T03:39:23.894Z,99784.94
2019-03-05T03:41:53.229Z,99778.02
2019-03-05T03:44:22.518Z,99786.38
2019-03-05T03:46:51.815Z,99788.41
2019-03-05T03:49:21.082Z,99789.59
2019-03-05T03:51:51.475Z,99798.08
2019-03-05T03:54:21.189Z,99800.45
2019-03-05T03:56:50.854Z,99782.31
2019-03-05T03:59:20.241Z,99788.02
2019-03-05T04:01:49.581Z,99792.18
2019-03-05T04:04:18.877Z,99786.34
2019-03-05T04:06:48.224Z,99788.00
2019-03-05T04:09:17.538Z,99790.14
2019-03-05T04:11:46.806Z,99779.99
2019-03-05T04:14:16.202Z,99775.09
2019-03-05T04:16:45.478Z,99775.17
2019-03-05T04:19:16.554Z,99775.33
2019-03-05T04:21:45.835Z,99774.27
2019-03-05T04:24:15.297Z,99776.05
2019-03-05T04:26:44.558Z,99774.77
2019-03-05T04:29:13.875Z,99773.77
2019-03-05T04:31:43.155Z,99772.12
2019-03-05T04:34:12.454Z,99773.92
2019-03-05T04:36:41.969Z,99767.23
2019-03-05T04:39:12.335Z,99770.45
2019-03-05T04:41:41.626Z,99779.03
2019-03-05T04:44:10.921Z,99776.28
2019-03-05T04:46:40.569Z,99785.65
2019-03-05T04:49:14.599Z,99794.14
2019-03-05T04:51:47.937Z,99794.14
2019-03-05T04:54:17.238Z,99788.19
2019-03-05T04:56:46.547Z,99792.45
2019-03-05T04:59:15.963Z,99792.83
2019-03-05T05:01:45.266Z,99793.33
2019-03-05T05:04:14.537Z,99792.94
2019-03-05T05:06:43.828Z,99784.83
2019-03-05T05:09:13.661Z,99788.66
2019-03-05T05:11:42.969Z,99789.47
2019-03-05T05:14:12.386Z,99784.57
2019-03-05T05:16:41.667Z,99786.81
2019-03-05T05:19:11.297Z,99781.29
2019-03-05T05:21:40.571Z,99786.55
2019-03-05T05:24:09.877Z,99787.73
2019-03-05T05:26:39.235Z,99789.41
2019-03-05T05:29:08.529Z,99789.02
2019-03-05T05:31:37.879Z,99781.55
2019-03-05T05:34:07.179Z,99783.66
2019-03-05T05:36:36.477Z,99784.83
2019-03-05T05:39:09.139Z,99782.20
2019-03-05T05:41:38.449Z,99779.22
2019-03-05T05:44:07.712Z,99781.69
2019-03-05T05:46:37.356Z,99786.13
2019-03-05T05:49:06.636Z,99788.33
2019-03-05T05:51:35.956Z,99787.86
2019-03-05T05:54:05.582Z,99784.42
2019-03-05T05:56:34.879Z,99784.42
2019-03-05T05:59:04.289Z,99777.41
2019-03-05T06:01:34.012Z,99777.80
2019-03-05T06:04:03.277Z,99779.50
2019-03-05T06:06:32.586Z,99777.83
2019-03-05T06:09:01.866Z,99778.53
2019-03-05T06:11:31.173Z,99777.56
2019-03-05T06:14:00.433Z,99784.48
2019-03-05T06:16:29.729Z,99776.70
2019-03-05T06:18:59.026Z,99778.76
2019-03-05T06:21:28.555Z,99780.30
2019-03-05T06:23:57.849Z,99780.53
2019-03-05T06:26:27.393Z,99788.88
2019-03-05T06:28:56.702Z,99786.38
2019-03-05T06:31:26.002Z,99784.32
2019-03-05T06:33:55.284Z,99794.73
2019-03-05T06:36:24.601Z,99796.84
2019-03-05T06:38:54.120Z,99795.46
2019-03-05T06:41:23.750Z,99789.11
2019-03-05T06:43:53.096Z,99784.61
2019-03-05T06:46:22.397Z,99792.88
2019-03-05T06:48:51.666Z,99792.88
2019-03-05T06:51:21.654Z,99783.29
2019-03-05T06:53:50.968Z,99779.11
2019-03-05T06:56:20.528Z,99778.09
2019-03-05T06:58:49.830Z,99778.09
2019-03-05T07:01:19.328Z,99770.89
2019-03-05T07:03:48.715Z,99770.89
2019-03-05T07:06:52.531Z,99783.91
2019-03-05T07:09:27.922Z,99783.91
2019-03-05T07:12:12.205Z,99787.23
2019-03-05T07:14:59.901Z,99802.50
2019-03-05T07:17:34.797Z,99803.75
2019-03-05T07:20:23.799Z,99803.75
2019-03-05T07:23:01.857Z,99794.48
2019-03-05T07:25:31.563Z,99792.51
2019-03-05T07:28:01.031Z,99798.39
2019-03-05T07:30:30.376Z,99798.39
2019-03-05T07:32:59.793Z,99790.95
2019-03-05T07:35:30.526Z,99803.08
2019-03-05T07:37:59.975Z,99810.70
2019-03-05T07:40:31.057Z,99805.47
2019-03-05T07:43:00.459Z,99803.47
2019-03-05T07:45:32.534Z,99824.80
2019-03-05T07:48:01.855Z,99824.80
2019-03-05T07:50:31.131Z,99807.90
2019-03-05T07:53:00.442Z,99843.48
2019-03-05T07:55:29.746Z,99839.20
2019-03-05T07:57:59.047Z,99832.73
2019-03-05T08:00:28.579Z,99841.95
2019-03-05T08:02:57.848Z,99838.64
2019-03-05T08:05:27.826Z,99829.14
2019-03-05T08:07:58.625Z,99830.12
2019-03-05T08:10:30.525Z,99843.51
2019-03-05T08:13:11.926Z,99843.51
2019-03-05T08:15:48.639Z,99848.47
2019-03-05T08:18:17.930Z,99850.52
2019-03-05T08:20:47.304Z,99850.52
2019-03-05T08:23:16.588Z,99847.83
2019-03-05T08:25:45.907Z,99859.06
2019-03-05T08:28:15.642Z,99859.84
2019-03-05T08:30:45.223Z,99858.48
2019-03-05T08:33:14.609Z,99866.42
2019-03-05T08:35:44.753Z,99886.50
2019-03-05T08:38:14.048Z,99886.50
2019-03-05T08:40:43.448Z,99882.62
2019-03-05T08:43:12.750Z,99882.62
2019-03-05T08:45:42.053Z,99887.42
2019-03-05T08:48:11.362Z,99894.53
2019-03-05T08:50:40.683Z,99889.83
2019-03-05T08:53:09.975Z,99899.66
2019-03-05T08:55:39.251Z,99899.44
2019-03-05T08:58:08.549Z,99910.13
2019-03-05T09:00:37.890Z,99910.13
2019-03-05T09:03:07.363Z,99905.21
2019-03-05T09:05:36.995Z,99912.53
2019-03-05T09:08:06.822Z,99908.56
2019-03-05T09:10:36.452Z,99921.25
2019-03-05T09:13:07.618Z,99921.25
2019-03-05T09:15:37.140Z,99924.55
2019-03-05T09:18:06.939Z,99916.55
2019-03-05T09:20:36.740Z,99913.56
2019-03-05T09:23:06.406Z,99927.67
2019-03-05T09:38:27.842Z,99945.06
2019-03-05T09:40:57.654Z,99943.55
2019-03-05T09:43:27.201Z,99933.42
2019-03-05T09:45:57.190Z,99943.95
2019-03-05T09:48:26.627Z,99951.92
2019-03-05T09:50:56.073Z,99958.73
2019-03-05T09:53:25.338Z,99956.89
2019-03-05T09:55:55.138Z,99956.89
2019-03-05T09:58:24.405Z,99953.50
2019-03-05T10:00:53.771Z,99952.83
2019-03-05T10:03:23.078Z,99954.92
2019-03-05T10:05:52.335Z,99957.34
2019-03-05T10:08:31.906Z,99966.42
2019-03-05T10:10:52.762Z,99966.42
2019-03-05T10:13:22.123Z,99964.84
2019-03-05T10:15:53.389Z,99958.66
2019-03-05T10:18:22.447Z,99963.52
2019-03-05T10:20:51.762Z,99963.31
2019-03-05T10:23:21.396Z,99965.08
2019-03-05T10:25:50.981Z,99969.55
2019-03-05T10:28:20.415Z,99972.09
2019-03-05T10:30:49.695Z,99963.24
2019-03-05T10:33:19.366Z,99959.95
2019-03-05T10:35:48.861Z,99962.69
2019-03-05T10:38:18.238Z,99962.97
2019-03-05T10:40:50.812Z,99977.40
2019-03-05T10:43:20.398Z,99971.25
2019-03-05T10:45:50.142Z,99971.25
2019-03-05T10:48:24.216Z,99978.09
2019-03-05T10:50:53.561Z,99978.09
2019-03-05T10:53:23.017Z,99982.42
2019-03-05T10:55:52.582Z,99979.56
2019-03-05T10:58:32.731Z,99986.69
2019-03-05T11:00:56.629Z,99973.83
2019-03-05T11:03:28.988Z,99975.55
2019-03-05T11:05:58.505Z,99980.77
2019-03-05T11:08:28.015Z,99978.66
2019-03-05T11:10:57.747Z,99977.78
2019-03-05T11:13:27.124Z,99978.67
2019-03-05T11:16:01.152Z,99978.89
2019-03-05T11:18:30.599Z,99980.21
2019-03-05T11:20:59.944Z,99980.60
2019-03-05T11:23:29.319Z,99983.45
2019-03-05T11:25:58.580Z,99983.45
2019-03-05T11:28:27.874Z,99993.06
2019-03-05T11:30:57.259Z,99993.06
2019-03-05T11:33:26.553Z,99989.28
2019-03-05T11:35:55.825Z,99988.08
2019-03-05T11:38:25.227Z,99996.67
2019-03-05T11:40:54.637Z,99990.12
2019-03-05T11:43:24.134Z,99987.28
2019-03-05T11:45:53.461Z,99995.50
2019-03-05T11:48:22.785Z,99993.95
2019-03-05T11:50:52.126Z,100001.07
2019-03-05T11:53:21.431Z,100002.67
2019-03-05T11:55:50.807Z,99999.55
2019-03-05T11:58:20.112Z,99992.44
2019-03-05T12:00:53.964Z,99994.53
2019-03-05T12:03:23.252Z,99994.59
2019-03-05T12:05:52.547Z,99999.09
2019-03-05T12:08:21.846Z,100004.55
2019-03-05T12:10:51.205Z,99998.97
2019-03-05T12:13:20.849Z,100021.53
2019-03-05T12:15:50.149Z,100004.89
2019-03-05T12:18:19.854Z,100006.53
2019-03-05T12:20:49.368Z,100005.00
2019-03-05T12:23:18.660Z,100005.66
2019-03-05T12:25:48.307Z,100003.59
2019-03-05T12:28:17.713Z,100008.00
2019-03-05T12:30:47.125Z,100004.11
2019-03-05T12:33:16.498Z,99998.30
2019-03-05T12:35:45.863Z,100006.09
2019-03-05T12:38:15.221Z,100006.84
2019-03-05T12:40:44.518Z,100003.52
2019-03-05T12:43:13.838Z,100002.02
2019-03-05T12:45:43.441Z,100006.91
2019-03-05T12:48:12.806Z,100006.91
2019-03-05T12:50:42.484Z,100012.59
2019-03-05T12:53:11.897Z,100020.14
2019-03-05T12:55:41.481Z,100014.28
2019-03-05T12:58:10.877Z,100023.39
2019-03-05T13:00:40.324Z,100023.39
2019-03-05T13:03:09.879Z,100027.48
2019-03-05T13:05:39.251Z,100033.66
2019-03-05T13:08:08.720Z,100036.19
2019-03-05T13:10:38.085Z,100032.17
2019-03-05T13:13:10.427Z,100032.17
2019-03-05T13:15:40.718Z,100019.09
2019-03-05T13:18:10.104Z,100018.76
2019-03-05T13:20:39.475Z,100009.42
2019-03-05T13:23:10.490Z,100013.64
2019-03-05T13:25:40.211Z,100020.82
2019-03-05T13:28:09.980Z,100011.61
2019-03-05T13:30:40.472Z,100017.38
2019-03-05T13:33:10.215Z,100015.72
2019-03-05T13:35:39.791Z,100021.52
2019-03-05T13:38:12.848Z,100023.17
2019-03-05T13:40:42.313Z,100028.53
2019-03-05T13:43:11.621Z,100037.61
2019-03-05T13:45:49.117Z,100029.47
2019-03-05T13:48:31.046Z,100037.73
2019-03-05T13:51:23.091Z,100047.59
2019-03-05T13:54:05.443Z,100056.69
2019-03-05T13:56:50.547Z,100052.09
2019-03-05T13:59:38.203Z,100046.49
2019-03-05T14:02:08.961Z,100050.26
2019-03-05T14:05:05.020Z,100059.81
2019-03-05T14:08:09.286Z,100052.66
2019-03-05T14:10:38.708Z,100054.16
2019-03-05T14:13:08.048Z,100071.00
2019-03-05T14:15:38.221Z,100070.59
2019-03-05T14:18:07.584Z,100073.22
2019-03-05T14:20:37.094Z,100074.02
2019-03-05T14:23:06.528Z,100079.06
2019-03-05T14:25:35.954Z,100078.94
2019-03-05T14:28:05.410Z,100087.11
2019-03-05T14:30:34.936Z,100080.39
2019-03-05T14:33:04.516Z,100083.28
2019-03-05T14:35:34.256Z,100086.18
2019-03-05T14:38:04.244Z,100095.55
2019-03-05T14:40:34.289Z,100097.42
2019-03-05T14:43:05.702Z,100105.07
2019-03-05T14:45:35.510Z,100112.90
2019-03-05T14:48:05.587Z,100116.69
2019-03-05T14:50:35.711Z,100118.03
2019-03-05T14:53:05.200Z,100120.78
2019-03-05T14:55:34.445Z,100114.40
2019-03-05T14:58:04.228Z,100119.55
2019-03-05T15:00:33.797Z,100118.34
2019-03-05T15:03:03.291Z,100121.80
2019-03-05T15:05:32.646Z,100129.61
2019-03-05T15:08:01.964Z,100128.30
2019-03-05T15:10:31.627Z,100125.56
2019-03-05T15:13:01.175Z,100125.86
2019-03-05T15:15:32.270Z,100123.42
2019-03-05T15:18:01.802Z,100119.75
2019-03-05T15:20:31.621Z,100092.65
2019-03-05T15:23:00.995Z,100120.69
2019-03-05T15:25:30.779Z,100124.38
2019-03-05T15:28:00.206Z,100125.05
2019-03-05T15:30:29.856Z,100121.73
2019-03-05T15:32:59.294Z,100128.99
2019-03-05T15:35:28.663Z,100126.73
2019-03-05T15:37:57.971Z,100121.23
2019-03-05T15:40:27.273Z,100125.64
2019-03-05T15:42:56.624Z,100132.80
2019-03-05T15:45:25.927Z,100141.31
2019-03-05T15:47:55.234Z,100137.03
2019-03-05T15:50:27.078Z,100138.78
2019-03-05T15:52:56.316Z,100143.65
2019-03-05T15:55:26.543Z,100144.41
2019-03-05T15:57:55.861Z,100139.80
2019-03-05T16:00:31.580Z,100133.62
2019-03-05T16:03:01.927Z,100143.06
2019-03-05T16:05:31.745Z,100139.67
2019-03-05T16:08:01.575Z,100143.48
2019-03-05T16:10:31.092Z,100153.34
2019-03-05T16:13:00.376Z,100155.78
2019-03-05T16:15:29.671Z,100152.45
2019-03-05T16:18:01.332Z,100159.37
2019-03-05T16:20:30.259Z,100163.59
2019-03-05T16:22:59.743Z,100164.64
2019-03-05T16:25:29.119Z,100162.05
2019-03-05T16:28:02.303Z,100173.59
2019-03-05T16:30:45.025Z,100172.89
2019-03-05T16:33:18.722Z,100174.71
2019-03-05T16:36:04.768Z,100172.05
2019-03-05T16:38:51.185Z,100181.77
2019-03-05T16:41:23.476Z,100174.45
2019-03-05T16:44:06.535Z,100175.79
2019-03-05T16:46:40.345Z,100179.25
2019-03-05T16:49:11.319Z,100186.28
2019-03-05T16:51:45.387Z,100192.13
2019-03-05T16:54:19.053Z,100193.61
2019-03-05T16:56:55.961Z,100194.30
2019-03-05T16:59:26.926Z,100198.95
2019-03-05T17:02:04.002Z,100198.13
2019-03-05T17:04:40.592Z,100199.87
2019-03-05T17:07:11.844Z,100210.02
2019-03-05T17:09:55.686Z,100222.05
2019-03-05T17:12:24.966Z,100222.05
2019-03-05T17:14:54.285Z,100214.20
2019-03-05T17:17:23.572Z,100212.09
2019-03-05T17:19:52.901Z,100222.73
2019-03-05T17:22:22.174Z,100222.67
2019-03-05T17:24:51.472Z,100227.23
2019-03-05T17:27:20.765Z,100230.61
2019-03-05T17:29:50.060Z,100238.67
2019-03-05T17:32:19.491Z,100229.98
2019-03-05T17:34:49.173Z,100227.97
2019-03-05T17:37:18.469Z,100239.98
2019-03-05T17:39:47.753Z,100243.05
2019-03-05T17:42:17.127Z,100237.30
2019-03-05T17:44:46.447Z,100250.39
2019-03-05T17:47:15.729Z,100249.00
2019-03-05T17:49:45.028Z,100246.09
2019-03-05T17:52:14.302Z,100250.44
2019-03-05T17:54:43.673Z,100258.08
2019-03-05T17:57:13.226Z,100281.17
2019-03-05T17:59:42.599Z,100266.92
2019-03-05T18:02:12.047Z,100256.14
2019-03-05T18:04:41.382Z,100256.09
2019-03-05T18:07:10.765Z,100265.09
2019-03-05T18:09:40.117Z,100279.85
2019-03-05T18:12:09.498Z,100274.26
2019-03-05T18:14:38.802Z,100276.30
2019-03-05T18:17:08.928Z,100285.77
2019-03-05T18:19:38.505Z,100294.95
2019-03-05T18:22:07.897Z,100295.64
2019-03-05T18:24:37.164Z,100301.73
2019-03-05T18:27:06.617Z,100304.30
2019-03-05T18:29:36.206Z,100303.09
2019-03-05T18:32:05.488Z,100309.51
2019-03-05T18:34:34.835Z,100303.95
2019-03-05T18:37:04.221Z,100314.67
2019-03-05T18:39:33.521Z,100318.63
2019-03-05T18:42:03.027Z,100323.44
2019-03-05T18:44:32.311Z,100318.70
2019-03-05T18:47:01.685Z,100324.76
2019-03-05T18:49:30.965Z,100346.81
2019-03-05T18:52:00.546Z,100325.06
2019-03-05T18:54:29.852Z,100335.41
2019-03-05T18:56:59.163Z,100324.29
2019-03-05T18:59:28.422Z,100332.47
2019-03-05T19:01:57.729Z,100328.44
2019-03-05T19:04:27.022Z,100328.44
2019-03-05T19:06:56.316Z,100328.40
2019-03-05T19:09:25.616Z,100331.16
2019-03-05T19:11:54.989Z,100340.64
2019-03-05T19:14:24.283Z,100342.93
2019-03-05T19:16:53.986Z,100342.93
2019-03-05T19:19:23.286Z,100341.27
2019-03-05T19:21:52.661Z,100344.05
2019-03-05T19:24:21.944Z,100339.63
2019-03-05T19:26:51.251Z,100353.77
2019-03-05T19:29:21.048Z,100353.77
2019-03-05T19:31:50.363Z,100365.63
2019-03-05T19:34:19.774Z,100375.25
2019-03-05T19:36:49.132Z,100367.48
2019-03-05T19:39:18.438Z,100370.95
2019-03-05T19:41:55.842Z,100370.95
2019-03-05T19:44:19.195Z,100375.39
2019-03-05T19:46:48.658Z,100375.39
2019-03-05T19:49:17.941Z,100365.59
2019-03-05T19:51:47.314Z,100364.41
2019-03-05T19:54:16.637Z,100364.41
2019-03-05T19:56:45.925Z,100367.41
2019-03-05T19:59:15.224Z,100367.41
2019-03-05T20:01:44.658Z,100369.81
2019-03-05T20:04:14.715Z,100368.37
2019-03-05T20:06:44.258Z,100369.20
2019-03-05T20:09:16.624Z,100369.20
2019-03-05T20:11:45.946Z,100371.11
2019-03-05T20:14:15.309Z,100377.09
2019-03-05T20:16:44.696Z,100373.77
2019-03-05T20:19:13.977Z,100373.16
2019-03-05T20:21:46.053Z,100358.45
2019-03-05T20:24:17.147Z,100369.58
2019-03-05T20:26:46.495Z,100374.24
2019-03-05T20:29:15.776Z,100374.24
2019-03-05T20:31:45.079Z,100372.42
2019-03-05T20:34:14.400Z,100369.59
2019-03-05T20:36:43.767Z,100368.27
2019-03-05T20:39:13.164Z,100367.53
2019-03-05T20:41:42.865Z,100361.55
2019-03-05T20:44:12.169Z,100361.55
2019-03-05T20:46:41.448Z,100361.78
2019-03-05T20:49:10.747Z,100362.98
2019-03-05T20:51:40.235Z,100353.88
2019-03-05T20:54:09.588Z,100353.66
2019-03-05T20:56:40.563Z,100361.78
2019-03-05T20:59:10.258Z,100361.78
2019-03-05T21:01:39.589Z,100366.21
2019-03-05T21:04:08.986Z,100359.14
2019-03-05T21:06:38.277Z,100366.10
2019-03-05T21:09:10.650Z,100366.92
2019-03-05T21:11:39.937Z,100369.06
2019-03-05T21:14:09.281Z,100369.31
2019-03-05T21:16:38.552Z,100362.23
2019-03-05T21:19:07.855Z,100366.08
2019-03-05T21:21:37.159Z,100375.63
2019-03-05T21:24:06.527Z,100365.92
2019-03-05T21:26:35.843Z,100359.69
2019-03-05T21:29:05.190Z,100370.58
2019-03-05T21:31:34.808Z,100368.54
2019-03-05T21:34:04.218Z,100368.54
2019-03-05T21:36:33.523Z,100364.14
2019-03-05T21:39:04.338Z,100368.91
2019-03-05T21:41:33.647Z,100368.91
2019-03-05T21:44:03.190Z,100367.13
2019-03-05T21:46:32.700Z,100367.13
2019-03-05T21:49:02.146Z,100373.60
2019-03-05T21:51:31.909Z,100369.86
2019-03-05T21:54:01.519Z,100369.86
2019-03-05T21:56:31.409Z,100375.65
2019-03-05T21:59:00.797Z,100376.23
2019-03-05T22:01:32.390Z,100369.02
2019-03-05T22:04:02.833Z,100369.02
2019-03-05T22:06:32.314Z,100372.85
2019-03-05T22:09:01.987Z,100376.22
2019-03-05T22:11:31.951Z,100365.55
2019-03-05T22:14:01.393Z,100365.55
2019-03-05T22:16:31.315Z,100370.45
2019-03-05T22:19:00.826Z,100367.08
2019-03-05T22:21:30.265Z,100369.46
2019-03-05T22:23:59.557Z,100369.46
2019-03-05T22:26:28.949Z,100365.19
2019-03-05T22:28:58.339Z,100357.96
2019-03-05T22:31:27.730Z,100366.19
2019-03-05T22:33:57.210Z,100360.70
2019-03-05T22:36:26.567Z,100360.70
2019-03-05T22:38:55.855Z,100364.91
2019-03-05T22:41:25.360Z,100360.73
2019-03-05T22:43:54.890Z,100360.73
2019-03-05T22:46:24.206Z,100358.22
2019-03-05T22:48:53.547Z,100358.23
2019-03-05T22:51:22.876Z,100358.23
2019-03-05T22:53:52.496Z,100360.48
2019-03-05T22:56:22.336Z,100353.80
2019-03-05T22:58:51.736Z,100345.41
2019-03-05T23:01:24.908Z,100345.41
2019-03-05T23:03:54.513Z,100349.49
2019-03-05T23:06:24.741Z,100359.29
2019-03-05T23:08:54.589Z,100349.95
2019-03-05T23:11:24.184Z,100354.38
2019-03-05T23:13:54.668Z,100354.38
2019-03-05T23:16:24.216Z,100352.48
2019-03-05T23:18:53.608Z,100358.57
2019-03-05T23:21:23.036Z,100349.92
2019-03-05T23:23:52.813Z,100349.92
2019-03-05T23:26:22.531Z,100344.75
2019-03-05T23:28:52.260Z,100330.89
2019-03-05T23:31:21.895Z,100339.51
2019-03-05T23:33:51.697Z,100339.86
2019-03-05T23:36:21.577Z,100341.87
2019-03-05T23:38:50.892Z,100341.87
2019-03-05T23:41:20.304Z,100336.27
2019-03-05T23:43:49.688Z,100340.23
2019-03-05T23:46:19.136Z,100332.33
2019-03-05T23:48:48.957Z,100324.90
2019-03-05T23:51:18.259Z,100324.90
2019-03-05T23:53:47.549Z,100326.66
2019-03-05T23:56:17.215Z,100319.94
2019-03-05T23:58:46.520Z,100319.94
